Dover, Michigan
Current Conditions -  °F | °C
As of 10:51 PM on Monday 20 Oct 2014 (Local Time) from KARB Reporting Station
Broken Clouds Broken Clouds  
Wind Chill: 12°   Ceiling: 2500
Heat Index: 12°   Visibility: 10mi
Dew Point:   Wind: 7mph
Humidity: 82%   Direction: 330°NNW
Pressure: 29.87"   Gusts: NA
Location:  42.3528°N, 83.8974°W
Report Text: KARB 210251Z AUTO 33006KT 10SM FEW016 BKN025 BKN036 12/09 A2987 RMK AO2 RAB0158E45 P0000
Loading
Personal Weather Stations






























Interactive Weather Map
Tropical Storm Tracking
New forecast layout! Learn more

10-Day Weather Forecast

Advertisements
Track Severe Weather on mobile